Time;durP1;ratioP1;P1;durP2;ratioP2;P2;SDS_P1;SDS_P2;PMS_P1;PMS_P2;Temp;Humidity;BMP_temperature;BMP_pressure;BME280_temperature;BME280_humidity;BME280_pressure;Samples;Min_cycle;Max_cycle;Signal;HPM_P1;HPM_P2
2023/12/11 00:00:21;;;;;;;25.30;14.10;;;;;;;-0.36;100.00;101450.79;105951;1254;60425;-76
2023/12/11 00:02:48;;;;;;;25.10;15.30;;;;;;;-0.37;100.00;101454.91;106096;1254;73839;-77
2023/12/11 00:05:15;;;;;;;25.60;14.90;;;;;;;-0.37;100.00;101451.65;106076;1256;63645;-76
2023/12/11 00:07:42;;;;;;;21.90;13.40;;;;;;;-0.36;100.00;101448.55;105837;1254;72825;-77
2023/12/11 00:10:10;;;;;;;25.30;15.90;;;;;;;-0.37;100.00;101445.98;105962;1256;61134;-77
2023/12/11 00:12:37;;;;;;;22.90;13.40;;;;;;;-0.39;100.00;101444.10;105872;1254;60459;-77
2023/12/11 00:15:04;;;;;;;21.40;12.30;;;;;;;-0.41;100.00;101438.25;105781;1254;73614;-78
2023/12/11 00:17:31;;;;;;;22.90;13.70;;;;;;;-0.42;100.00;101436.71;105823;1256;64022;-77
2023/12/11 00:19:59;;;;;;;19.70;13.40;;;;;;;-0.44;100.00;101435.16;105866;1256;71648;-78
2023/12/11 00:22:26;;;;;;;23.60;12.60;;;;;;;-0.43;100.00;101433.10;105933;1256;61149;-77
2023/12/11 00:24:54;;;;;;;20.20;12.90;;;;;;;-0.39;100.00;101432.76;105730;1254;60525;-76
2023/12/11 00:27:21;;;;;;;21.70;13.20;;;;;;;-0.39;100.00;101436.71;105817;1253;74030;-78
2023/12/11 00:29:48;;;;;;;22.00;14.20;;;;;;;-0.39;100.00;101432.08;105836;1256;64307;-77
2023/12/11 00:32:16;;;;;;;21.10;13.40;;;;;;;-0.38;100.00;101427.95;105811;1256;71401;-79
2023/12/11 00:34:43;;;;;;;23.50;13.40;;;;;;;-0.35;100.00;101423.13;105790;1254;60523;-77
2023/12/11 00:37:10;;;;;;;22.00;14.00;;;;;;;-0.33;100.00;101420.55;105824;1254;60459;-77
2023/12/11 00:39:37;;;;;;;22.40;14.50;;;;;;;-0.32;100.00;101416.60;105889;1256;73916;-78
2023/12/11 00:42:04;;;;;;;19.50;13.70;;;;;;;-0.33;100.00;101415.57;105965;1254;64074;-76
2023/12/11 00:44:31;;;;;;;25.40;14.70;;;;;;;-0.34;100.00;101410.59;105796;1256;72627;-78
2023/12/11 00:46:59;;;;;;;22.20;14.40;;;;;;;-0.34;100.00;101405.78;105831;1255;60569;-76
2023/12/11 00:49:26;;;;;;;18.40;13.20;;;;;;;-0.34;100.00;101401.31;105831;1254;60476;-75
2023/12/11 00:51:53;;;;;;;17.80;12.80;;;;;;;-0.32;100.00;101397.02;105988;1254;71514;-78
2023/12/11 00:54:21;;;;;;;16.60;12.20;;;;;;;-0.33;100.00;101393.58;106390;1256;63925;-76
2023/12/11 00:56:49;;;;;;;18.30;11.90;;;;;;;-0.32;100.00;101384.82;106113;1256;72573;-77
2023/12/11 00:59:16;;;;;;;17.00;11.90;;;;;;;-0.28;100.00;101386.35;105959;1256;61221;-77
2023/12/11 01:01:43;;;;;;;15.90;11.60;;;;;;;-0.28;100.00;101383.27;105878;1254;60632;-78
2023/12/11 01:04:12;;;;;;;15.00;11.60;;;;;;;-0.31;100.00;101385.15;105956;1256;73885;-80
2023/12/11 01:06:41;;;;;;;15.80;10.90;;;;;;;-0.33;100.00;101384.48;105844;1256;63838;-77
2023/12/11 01:09:07;;;;;;;16.80;11.10;;;;;;;-0.32;100.00;101379.14;105874;1254;72408;-78
2023/12/11 01:11:34;;;;;;;15.40;10.80;;;;;;;-0.30;100.00;101382.41;105978;1256;60441;-78
2023/12/11 01:14:01;;;;;;;14.00;9.90;;;;;;;-0.29;100.00;101381.71;105811;1255;60310;-77
2023/12/11 01:16:28;;;;;;;14.20;10.30;;;;;;;-0.29;100.00;101376.73;105817;1252;73782;-78
2023/12/11 01:18:56;;;;;;;17.40;11.70;;;;;;;-0.30;100.00;101376.73;106025;1256;63821;-77
2023/12/11 01:21:22;;;;;;;15.30;11.20;;;;;;;-0.29;100.00;101373.29;105837;1256;72498;-78
2023/12/11 01:23:50;;;;;;;15.10;10.50;;;;;;;-0.28;100.00;101376.04;105757;1255;60536;-79
2023/12/11 01:26:17;;;;;;;17.40;12.60;;;;;;;-0.29;100.00;101373.64;105871;1254;60450;-78
2023/12/11 01:28:44;;;;;;;16.60;11.00;;;;;;;-0.27;100.00;101375.17;105910;1252;72313;-76
2023/12/11 01:31:12;;;;;;;13.70;11.10;;;;;;;-0.21;100.00;101376.70;105919;1256;62784;-77
2023/12/11 01:33:38;;;;;;;13.00;10.00;;;;;;;-0.17;100.00;101375.14;105858;1256;72693;-78
2023/12/11 01:36:05;;;;;;;14.10;10.90;;;;;;;-0.18;100.00;101372.05;105848;1256;60975;-78
2023/12/11 01:38:32;;;;;;;17.00;12.50;;;;;;;-0.18;100.00;101370.84;106106;1256;60370;-75
2023/12/11 01:40:59;;;;;;;15.90;12.20;;;;;;;-0.14;100.00;101368.95;106481;1254;73868;-76
2023/12/11 01:43:26;;;;;;;18.10;14.30;;;;;;;-0.09;100.00;101374.61;106420;1256;64014;-77
2023/12/11 01:46:01;;;;;;;16.50;11.10;;;;;;;-0.07;100.00;101378.03;105832;1255;71398;-76
2023/12/11 01:48:28;;;;;;;;;;;;;;;-0.09;100.00;101376.48;105943;1256;61424;-77
2023/12/11 01:50:55;;;;;;;19.50;13.20;;;;;;;-0.07;100.00;101378.55;105885;1256;60435;-76
2023/12/11 01:53:22;;;;;;;18.60;14.50;;;;;;;-0.02;100.00;101381.27;105905;1253;73846;-78
2023/12/11 01:55:49;;;;;;;17.50;11.50;;;;;;;0.02;100.00;101381.94;105724;1256;63795;-79
2023/12/11 01:58:17;;;;;;;16.60;12.10;;;;;;;0.01;100.00;101377.15;105743;1254;72717;-78
2023/12/11 02:00:44;;;;;;;14.10;11.70;;;;;;;-0.02;100.00;101376.46;105743;1256;61217;-77
2023/12/11 02:03:11;;;;;;;14.30;12.10;;;;;;;-0.05;100.00;101370.12;105796;1254;60444;-77
2023/12/11 02:05:40;;;;;;;15.40;12.60;;;;;;;-0.08;100.00;101369.97;106002;1256;72917;-77
2023/12/11 02:08:08;;;;;;;15.10;11.80;;;;;;;-0.06;100.00;101372.02;105874;1257;63724;-78
2023/12/11 02:10:36;;;;;;;15.80;10.90;;;;;;;-0.09;100.00;101360.67;105766;1254;72659;-80
2023/12/11 02:13:03;;;;;;;14.20;10.60;;;;;;;-0.12;100.00;101357.77;106015;1256;61107;-77
2023/12/11 02:15:44;;;;;;;15.80;10.90;;;;;;;-0.13;100.00;101356.75;105956;1254;60433;-78
2023/12/11 02:18:14;;;;;;;11.40;9.60;;;;;;;-0.11;100.00;101355.19;105947;1255;73930;-78
2023/12/11 02:20:41;;;;;;;12.30;9.50;;;;;;;-0.13;100.00;101362.41;105829;1256;63717;-78
2023/12/11 02:23:13;;;;;;;14.20;10.60;;;;;;;-0.17;100.00;101360.02;105913;1254;71215;-78
2023/12/11 02:25:43;;;;;;;17.90;11.90;;;;;;;-0.17;100.00;101361.21;106013;1254;61046;-78
2023/12/11 02:28:10;;;;;;;16.00;11.20;;;;;;;-0.13;100.00;101363.79;107067;1254;60543;-76
2023/12/11 02:30:40;;;;;;;15.40;9.00;;;;;;;-0.12;100.00;101364.29;106371;1256;73891;-75
2023/12/11 02:33:07;;;;;;;15.30;9.70;;;;;;;-0.13;100.00;101363.79;106918;1259;63868;-76
2023/12/11 02:35:37;;;;;;;16.10;10.10;;;;;;;-0.18;100.00;101356.58;105901;1254;72609;-81
2023/12/11 02:38:05;;;;;;;13.50;10.20;;;;;;;-0.21;100.00;101359.02;105926;1256;60987;-79
2023/12/11 02:40:32;;;;;;;14.80;10.90;;;;;;;-0.20;100.00;101356.77;105932;1256;60438;-79
2023/12/11 02:42:59;;;;;;;15.40;10.00;;;;;;;-0.17;100.00;101359.16;105826;1254;73833;-79
2023/12/11 02:45:27;;;;;;;13.30;8.70;;;;;;;-0.12;100.00;101359.48;105829;1256;62944;-77
2023/12/11 02:48:02;;;;;;;14.30;10.10;;;;;;;-0.08;100.00;101355.00;105751;1256;72703;-77
2023/12/11 02:50:30;;;;;;;13.40;10.20;;;;;;;-0.05;100.00;101354.30;105793;1256;61174;-78
2023/12/11 02:52:58;;;;;;;15.30;10.00;;;;;;;-0.05;100.00;101351.20;105902;1254;60867;-77
2023/12/11 02:55:25;;;;;;;14.70;10.90;;;;;;;-0.05;100.00;101354.98;105819;1254;74074;-80
2023/12/11 02:57:56;;;;;;;17.70;11.30;;;;;;;-0.03;100.00;101352.23;105847;1256;63928;-77
2023/12/11 03:00:24;;;;;;;15.00;11.70;;;;;;;-0.03;100.00;101353.79;105912;1255;72831;-79
2023/12/11 03:02:51;;;;;;;12.50;9.40;;;;;;;-0.04;100.00;101347.94;105956;1254;60551;-79
2023/12/11 03:05:18;;;;;;;15.00;10.30;;;;;;;-0.03;100.00;101343.46;105893;1255;60466;-80
2023/12/11 03:07:44;;;;;;;18.00;12.00;;;;;;;-0.03;100.00;101345.36;105789;1256;73790;-78
2023/12/11 03:10:11;;;;;;;15.30;11.40;;;;;;;0.03;100.00;101347.91;105789;1256;65367;-79
2023/12/11 03:12:38;;;;;;;13.20;10.00;;;;;;;0.05;100.00;101347.04;105916;1256;72753;-77
2023/12/11 03:15:08;;;;;;;17.50;9.80;;;;;;;0.01;100.00;101341.73;105782;1254;60440;-78
2023/12/11 03:17:35;;;;;;;12.60;9.70;;;;;;;-0.01;100.00;101335.21;105910;1257;60438;-78
2023/12/11 03:20:05;;;;;;;11.60;9.90;;;;;;;0.01;100.00;101330.73;106270;1252;73813;-78
2023/12/11 03:22:32;;;;;;;11.90;8.40;;;;;;;-0.01;100.00;101324.55;106483;1254;63869;-76
2023/12/11 03:25:00;;;;;;;12.00;10.30;;;;;;;-0.02;100.00;101326.10;105863;1254;73022;-78
2023/12/11 03:27:27;;;;;;;14.60;10.10;;;;;;;-0.03;100.00;101329.03;105891;1256;62174;-79
2023/12/11 03:29:54;;;;;;;13.80;9.50;;;;;;;-0.03;100.00;101326.10;105882;1254;60443;-78
2023/12/11 03:32:21;;;;;;;10.80;9.00;;;;;;;-0.00;100.00;101328.84;105808;1256;73859;-78
2023/12/11 03:34:48;;;;;;;9.10;8.20;;;;;;;0.01;100.00;101331.41;105814;1255;63894;-77
2023/12/11 03:37:15;;;;;;;10.50;9.00;;;;;;;-0.02;100.00;101334.70;105857;1254;72624;-77
2023/12/11 03:39:42;;;;;;;12.60;10.00;;;;;;;-0.03;100.00;101338.82;105819;1252;60482;-78
2023/12/11 03:42:10;;;;;;;12.20;9.80;;;;;;;-0.03;100.00;101347.58;105811;1254;60482;-77
2023/12/11 03:44:37;;;;;;;11.50;10.00;;;;;;;-0.03;100.00;101351.55;105885;1257;73892;-77
2023/12/11 03:47:04;;;;;;;11.50;10.10;;;;;;;-0.04;100.00;101354.13;105829;1256;63845;-78
2023/12/11 03:49:32;;;;;;;13.30;10.90;;;;;;;-0.04;100.00;101352.06;105834;1257;72477;-77
2023/12/11 03:51:59;;;;;;;14.70;10.30;;;;;;;0.00;100.00;101356.35;105843;1256;62612;-77
2023/12/11 03:54:25;;;;;;;15.30;12.10;;;;;;;0.04;100.00;101355.98;105829;1256;60389;-76
2023/12/11 03:56:52;;;;;;;15.20;12.30;;;;;;;0.06;100.00;101360.95;105902;1254;72678;-77
2023/12/11 03:59:20;;;;;;;14.90;12.90;;;;;;;0.08;100.00;101360.94;105868;1256;62408;-77
2023/12/11 04:01:47;;;;;;;15.50;11.70;;;;;;;0.08;100.00;101363.34;105874;1254;72332;-76
2023/12/11 04:04:15;;;;;;;15.80;12.00;;;;;;;0.05;100.00;101369.73;105858;1256;61239;-77
2023/12/11 04:06:42;;;;;;;19.50;13.60;;;;;;;0.05;100.00;101383.66;105894;1252;60518;-76
2023/12/11 04:09:09;;;;;;;18.50;14.70;;;;;;;0.06;100.00;101390.70;106632;1256;73818;-74
2023/12/11 04:11:36;;;;;;;17.50;15.60;;;;;;;0.09;100.00;101391.71;105932;1256;63943;-78
2023/12/11 04:14:04;;;;;;;14.50;12.30;;;;;;;0.15;100.00;101391.86;105925;1254;72164;-78
2023/12/11 04:16:31;;;;;;;17.20;12.50;;;;;;;0.18;100.00;101391.67;105785;1256;62076;-77
2023/12/11 04:18:59;;;;;;;13.60;12.20;;;;;;;0.21;100.00;101395.27;105863;1256;60425;-76
2023/12/11 04:21:27;;;;;;;12.40;10.80;;;;;;;0.22;100.00;101397.84;105917;1257;74019;-77
2023/12/11 04:23:55;;;;;;;12.10;9.50;;;;;;;0.24;100.00;101395.60;105892;1256;63775;-77
2023/12/11 04:26:22;;;;;;;11.20;9.90;;;;;;;0.23;100.00;101394.40;105884;1254;72527;-78
2023/12/11 04:28:49;;;;;;;8.70;7.80;;;;;;;0.19;100.00;101394.77;105974;1256;61092;-78
2023/12/11 04:31:16;;;;;;;10.20;7.80;;;;;;;0.15;100.00;101389.27;105960;1256;60357;-79
2023/12/11 04:33:43;;;;;;;11.70;8.40;;;;;;;0.19;100.00;101380.32;105800;1254;73765;-78
2023/12/11 04:36:11;;;;;;;8.80;7.90;;;;;;;0.24;100.00;101375.48;105750;1256;64147;-78
2023/12/11 04:38:38;;;;;;;10.50;9.20;;;;;;;0.24;100.00;101367.58;106008;1254;72661;-76
2023/12/11 04:41:05;;;;;;;9.00;8.00;;;;;;;0.24;100.00;101368.77;105899;1256;61210;-77
2023/12/11 04:43:35;;;;;;;10.10;9.00;;;;;;;0.24;100.00;101367.40;105959;1256;60588;-77
2023/12/11 04:46:03;;;;;;;9.50;8.30;;;;;;;0.25;100.00;101370.15;105840;1256;73722;-77
2023/12/11 04:48:32;;;;;;;7.70;6.90;;;;;;;0.26;100.00;101372.20;105846;1261;62726;-76
2023/12/11 04:50:59;;;;;;;8.10;7.10;;;;;;;0.29;100.00;101372.02;105819;1254;72667;-77
2023/12/11 04:53:26;;;;;;;9.50;7.60;;;;;;;0.31;100.00;101375.61;105886;1256;61220;-76
2023/12/11 04:55:53;;;;;;;7.50;6.80;;;;;;;0.32;100.00;101376.13;106039;1254;60449;-78
2023/12/11 04:58:20;;;;;;;9.00;8.10;;;;;;;0.32;100.00;101368.38;106404;1254;73811;-76
2023/12/11 05:00:48;;;;;;;8.60;7.70;;;;;;;0.29;100.00;101360.84;105808;1257;63704;-76
2023/12/11 05:03:15;;;;;;;7.90;7.00;;;;;;;0.25;100.00;101360.17;105868;1254;72479;-77
2023/12/11 05:05:42;;;;;;;11.90;9.00;;;;;;;0.24;100.00;101363.78;105816;1252;60873;-76
2023/12/11 05:08:08;;;;;;;8.90;7.10;;;;;;;0.23;100.00;101360.34;105841;1254;60568;-77
2023/12/11 05:10:36;;;;;;;7.00;6.40;;;;;;;0.20;100.00;101361.05;105859;1254;74235;-76
2023/12/11 05:13:03;;;;;;;8.10;6.30;;;;;;;0.17;100.00;101362.28;105838;1257;63954;-77
2023/12/11 05:15:32;;;;;;;9.20;7.60;;;;;;;0.15;100.00;101360.73;106302;1255;71227;-78
2023/12/11 05:17:59;;;;;;;8.10;7.20;;;;;;;0.14;100.00;101361.77;106742;1254;61064;-78
2023/12/11 05:20:26;;;;;;;8.20;7.20;;;;;;;0.16;100.00;101362.95;107772;1254;60438;-76
2023/12/11 05:22:54;;;;;;;8.40;7.00;;;;;;;0.21;100.00;101365.18;108032;1256;72609;-78
2023/12/11 05:25:21;;;;;;;12.10;7.80;;;;;;;0.27;100.00;101363.77;105958;1254;62391;-78
2023/12/11 05:27:49;;;;;;;10.40;7.60;;;;;;;0.32;100.00;101367.70;105981;1255;72522;-78
2023/12/11 05:30:17;;;;;;;11.80;8.60;;;;;;;0.35;100.00;101364.76;105842;1256;61004;-77
2023/12/11 05:32:45;;;;;;;12.40;8.50;;;;;;;0.38;100.00;101359.91;105825;1254;60511;-78
2023/12/11 05:35:13;;;;;;;9.60;8.40;;;;;;;0.40;100.00;101356.98;105726;1254;72582;-79
2023/12/11 05:37:40;;;;;;;13.90;9.90;;;;;;;0.40;100.00;101356.30;105797;1256;63835;-79
2023/12/11 05:40:08;;;;;;;14.20;9.60;;;;;;;0.39;100.00;101357.85;105747;1257;71612;-77
2023/12/11 05:42:50;;;;;;;14.40;8.40;;;;;;;0.37;100.00;101360.96;105890;1254;61283;-75
2023/12/11 05:45:18;;;;;;;14.70;10.00;;;;;;;0.32;100.00;101362.19;106415;1256;60815;-79
2023/12/11 05:47:46;;;;;;;11.90;8.00;;;;;;;0.30;100.00;101367.54;105796;1255;73652;-78
2023/12/11 05:50:13;;;;;;;11.90;8.60;;;;;;;0.29;100.00;101370.45;105915;1257;63839;-76
2023/12/11 05:52:41;;;;;;;12.30;8.00;;;;;;;0.28;100.00;101370.82;105898;1259;72829;-76
2023/12/11 05:55:08;;;;;;;9.60;7.40;;;;;;;0.29;100.00;101370.80;105982;1256;60912;-77
2023/12/11 05:57:38;;;;;;;9.40;7.30;;;;;;;0.29;100.00;101368.06;105958;1254;61116;-78
2023/12/11 06:00:06;;;;;;;8.60;7.20;;;;;;;0.31;100.00;101364.61;105871;1256;73914;-78
2023/12/11 06:02:35;;;;;;;8.70;7.80;;;;;;;0.34;100.00;101365.62;105925;1252;63746;-77
2023/12/11 06:05:02;;;;;;;10.40;8.30;;;;;;;0.36;100.00;101361.66;105715;1256;72538;-79
2023/12/11 06:07:30;;;;;;;13.30;7.90;;;;;;;0.37;100.00;101365.09;105738;1256;60931;-76
2023/12/11 06:09:57;;;;;;;10.80;8.40;;;;;;;0.37;100.00;101370.77;105708;1252;60415;-77
2023/12/11 06:15:27;;;;;;;17.00;9.70;;;;;;;0.40;100.00;101375.56;102904;1291;615343;-78
2023/12/11 06:17:55;;;;;;;14.20;9.60;;;;;;;0.40;100.00;101373.85;105057;1268;61115;-77
2023/12/11 06:20:22;;;;;;;13.50;9.90;;;;;;;0.45;100.00;101376.56;104993;1264;60178;-78
2023/12/11 06:22:51;;;;;;;19.80;12.60;;;;;;;0.50;100.00;101372.92;104898;1264;72311;-77
2023/12/11 06:25:18;;;;;;;16.30;12.40;;;;;;;0.57;100.00;101373.56;104898;1269;62532;-78
2023/12/11 06:27:45;;;;;;;18.30;12.30;;;;;;;0.65;100.00;101377.99;104962;1264;217555;-79
2023/12/11 06:30:12;;;;;;;16.10;13.80;;;;;;;0.70;100.00;101384.31;105419;1263;61190;-76
2023/12/11 06:32:39;;;;;;;18.40;14.50;;;;;;;0.71;100.00;101383.45;105871;1259;60217;-76
2023/12/11 06:35:07;;;;;;;17.40;13.50;;;;;;;0.72;100.00;101385.86;106370;1256;71332;-76
2023/12/11 06:37:34;;;;;;;10.30;9.20;;;;;;;0.72;100.00;101384.14;106116;1258;62340;-77
2023/12/11 06:40:03;;;;;;;11.70;9.60;;;;;;;0.70;100.00;101382.77;105468;1259;72636;-78
2023/12/11 06:42:37;;;;;;;8.60;7.70;;;;;;;0.68;100.00;101380.89;105707;1262;61061;-76
2023/12/11 06:45:06;;;;;;;9.30;7.30;;;;;;;0.68;100.00;101385.88;105680;1262;60357;-77
2023/12/11 06:47:33;;;;;;;8.20;7.40;;;;;;;0.78;100.00;101389.08;105392;1262;73057;-77
2023/12/11 06:50:00;;;;;;;8.20;6.60;;;;;;;0.80;100.00;101397.67;105394;1260;63959;-78
2023/12/11 06:52:28;;;;;;;6.90;6.10;;;;;;;0.77;100.00;101396.31;105234;1261;73875;-78
2023/12/11 06:54:55;;;;;;;6.80;6.10;;;;;;;0.74;100.00;101393.40;105616;1262;61369;-78
2023/12/11 06:57:22;;;;;;;7.00;6.00;;;;;;;0.72;100.00;101391.70;105483;1262;59995;-79
2023/12/11 06:59:50;;;;;;;8.30;5.80;;;;;;;0.71;100.00;101398.95;105389;1259;71834;-79
2023/12/11 07:02:23;;;;;;;6.80;6.20;;;;;;;0.70;100.00;101390.00;105401;1263;64269;-78
2023/12/11 07:04:50;;;;;;;8.50;6.40;;;;;;;0.71;100.00;101385.02;105412;1262;72466;-77
2023/12/11 07:07:17;;;;;;;8.60;7.20;;;;;;;0.73;100.00;101389.64;105531;1262;61046;-78
2023/12/11 07:09:46;;;;;;;12.20;8.70;;;;;;;0.76;100.00;101391.52;105627;1261;59726;-78
2023/12/11 07:12:14;;;;;;;14.10;10.40;;;;;;;0.78;100.00;101393.21;105590;1258;71811;-78
2023/12/11 07:14:41;;;;;;;13.20;11.00;;;;;;;0.79;100.00;101389.42;105883;1262;63949;-76
2023/12/11 07:17:08;;;;;;;17.40;11.30;;;;;;;0.80;100.00;101390.44;105488;1262;72552;-78
2023/12/11 07:19:35;;;;;;;14.60;13.00;;;;;;;0.80;100.00;101392.34;105544;1260;60682;-76
2023/12/11 07:22:02;;;;;;;14.80;11.50;;;;;;;0.82;100.00;101393.17;105760;1260;59620;-75
2023/12/11 07:24:29;;;;;;;15.60;11.90;;;;;;;0.82;100.00;101394.39;106092;1260;72347;-77
2023/12/11 07:26:57;;;;;;;13.20;11.30;;;;;;;0.83;100.00;101392.31;105467;1262;62506;-77
2023/12/11 07:29:24;;;;;;;14.60;10.80;;;;;;;0.86;100.00;101396.25;105563;1258;71128;-78
2023/12/11 07:31:52;;;;;;;21.60;12.70;;;;;;;0.86;100.00;101400.73;105605;1259;61243;-76
2023/12/11 07:34:21;;;;;;;17.30;12.80;;;;;;;0.88;100.00;101403.81;105668;1257;60435;-77
2023/12/11 07:36:51;;;;;;;16.50;11.70;;;;;;;0.91;100.00;101406.03;105904;1260;72963;-76
2023/12/11 07:39:18;;;;;;;13.90;11.30;;;;;;;0.94;100.00;101405.83;105523;1260;63560;-77
2023/12/11 07:41:45;;;;;;;15.90;11.50;;;;;;;0.94;100.00;101406.88;105623;1260;72704;-77
2023/12/11 07:44:11;;;;;;;17.10;12.50;;;;;;;0.92;100.00;101403.44;105632;1260;60991;-75
2023/12/11 07:46:38;;;;;;;17.60;13.80;;;;;;;0.93;100.00;101406.70;105843;1258;60326;-77
2023/12/11 07:49:09;;;;;;;19.40;15.00;;;;;;;0.95;100.00;101402.23;105708;1255;73100;-77
2023/12/11 07:51:36;;;;;;;20.30;14.90;;;;;;;0.99;100.00;101408.20;105696;1259;63757;-77
2023/12/11 07:54:03;;;;;;;15.40;12.90;;;;;;;1.02;100.00;101408.19;105837;1252;71406;-76
2023/12/11 07:56:30;;;;;;;16.20;11.50;;;;;;;1.06;100.00;101407.30;105758;1256;61049;-79
2023/12/11 07:58:57;;;;;;;15.40;12.00;;;;;;;1.08;100.00;101406.25;105770;1254;59745;-78
2023/12/11 08:01:32;;;;;;;14.60;11.50;;;;;;;1.11;100.00;101405.70;105705;1253;73746;-76
2023/12/11 08:03:59;;;;;;;13.20;11.40;;;;;;;1.10;100.00;101395.90;105967;1253;63738;-78
2023/12/11 08:06:26;;;;;;;16.80;13.00;;;;;;;1.04;100.00;101387.68;105822;1257;72388;-78
2023/12/11 08:08:55;;;;;;;19.00;12.80;;;;;;;1.05;100.00;101378.20;105995;1259;60248;-77
2023/12/11 08:11:27;;;;;;;16.50;12.70;;;;;;;1.10;100.00;101369.72;106671;1253;60385;-76
2023/12/11 08:13:54;;;;;;;14.30;11.90;;;;;;;1.12;100.00;101363.50;107738;1253;71877;-79
2023/12/11 08:16:23;;;;;;;10.40;8.80;;;;;;;1.13;100.00;101359.35;105825;1256;63690;-76
2023/12/11 08:18:50;;;;;;;19.30;14.50;;;;;;;1.15;100.00;101351.94;105874;1255;72736;-78
2023/12/11 08:21:17;;;;;;;15.20;10.40;;;;;;;1.17;100.00;101348.14;105844;1256;61045;-78
2023/12/11 08:23:44;;;;;;;14.70;10.70;;;;;;;1.19;100.00;101341.56;105736;1257;60338;-78
2023/12/11 08:26:11;;;;;;;15.50;11.60;;;;;;;1.21;100.00;101338.97;105726;1257;72788;-78
2023/12/11 08:28:38;;;;;;;16.20;11.60;;;;;;;1.23;100.00;101332.92;105728;1256;63906;-76
2023/12/11 08:31:06;;;;;;;13.90;12.00;;;;;;;1.25;100.00;101331.52;105765;1254;72741;-78
2023/12/11 08:33:33;;;;;;;18.20;13.20;;;;;;;1.31;100.00;101335.09;105711;1258;61069;-78
2023/12/11 08:36:01;;;;;;;19.30;13.30;;;;;;;1.38;100.00;101338.09;105730;1258;60843;-77
2023/12/11 08:38:28;;;;;;;19.70;15.20;;;;;;;1.43;100.00;101339.27;105677;1256;73027;-77
2023/12/11 08:40:55;;;;;;;18.50;14.20;;;;;;;1.48;100.00;101341.27;105874;1254;63280;-77
2023/12/11 08:43:22;;;;;;;15.70;12.60;;;;;;;1.57;100.00;101332.22;105646;1257;72539;-77
2023/12/11 08:45:49;;;;;;;18.00;13.00;;;;;;;1.59;100.00;101332.19;105672;1258;62249;-76
2023/12/11 08:48:17;;;;;;;17.60;12.10;;;;;;;1.60;100.00;101327.18;105696;1254;61620;-78
2023/12/11 08:50:45;;;;;;;17.90;12.90;;;;;;;1.64;100.00;101322.32;105698;1257;73119;-77
2023/12/11 08:53:12;;;;;;;17.90;14.10;;;;;;;1.68;100.00;101320.37;105708;1259;63907;-76
2023/12/11 08:55:39;;;;;;;19.70;13.20;;;;;;;1.69;100.00;101325.53;105719;1257;72630;-75
2023/12/11 08:58:06;;;;;;;18.50;13.90;;;;;;;1.70;100.00;101326.72;105759;1257;60899;-76
2023/12/11 09:00:33;;;;;;;19.10;12.90;;;;;;;1.72;100.00;101323.26;105767;1254;60253;-77
2023/12/11 09:03:01;;;;;;;15.10;12.90;;;;;;;1.70;100.00;101319.65;106077;1257;72877;-77
2023/12/11 09:05:29;;;;;;;20.20;14.50;;;;;;;1.67;100.00;101323.82;105818;1256;63898;-78
2023/12/11 09:08:01;;;;;;;17.40;14.00;;;;;;;1.66;100.00;101321.25;105803;1255;72230;-77
2023/12/11 09:10:35;;;;;;;34.50;23.40;;;;;;;1.68;100.00;101324.34;105839;1258;60109;-76
2023/12/11 09:13:03;;;;;;;23.80;18.70;;;;;;;1.72;100.00;101316.19;105913;1254;60095;-75
2023/12/11 09:15:31;;;;;;;31.30;19.90;;;;;;;1.77;100.00;101306.80;105806;1256;73076;-78
2023/12/11 09:17:58;;;;;;;23.90;16.60;;;;;;;1.80;100.00;101306.77;106090;1257;63414;-76
2023/12/11 09:20:25;;;;;;;19.00;14.60;;;;;;;1.86;100.00;101300.14;105816;1256;72457;-76
2023/12/11 09:22:52;;;;;;;20.80;16.90;;;;;;;1.86;100.00;101295.32;105750;1257;60913;-76
2023/12/11 09:25:19;;;;;;;16.00;13.00;;;;;;;1.85;100.00;101294.13;105854;1253;59672;-76
2023/12/11 09:27:46;;;;;;;16.70;11.80;;;;;;;1.83;100.00;101289.16;105710;1257;71609;-78
2023/12/11 09:30:15;;;;;;;16.60;13.40;;;;;;;1.79;100.00;101290.41;105795;1256;65281;-79
2023/12/11 09:32:44;;;;;;;14.10;11.50;;;;;;;1.80;100.00;101290.22;105737;1257;73017;-78
2023/12/11 09:35:13;;;;;;;10.90;9.10;;;;;;;1.85;100.00;101286.72;105790;1257;60831;-77
2023/12/11 09:37:45;;;;;;;15.20;9.90;;;;;;;1.90;100.00;101282.52;105748;1254;59692;-77
2023/12/11 09:40:12;;;;;;;14.70;10.40;;;;;;;1.95;100.00;101281.08;105750;1256;73165;-78
2023/12/11 09:42:41;;;;;;;17.40;12.00;;;;;;;1.96;100.00;101273.81;105728;1254;61723;-77
2023/12/11 09:45:08;;;;;;;20.00;14.50;;;;;;;1.95;100.00;101266.73;105760;1254;71726;-76
2023/12/11 09:47:42;;;;;;;14.50;11.30;;;;;;;1.93;100.00;101268.67;105705;1257;60526;-76
2023/12/11 09:50:10;;;;;;;13.30;10.80;;;;;;;1.93;100.00;101260.56;106047;1254;59519;-76
2023/12/11 09:52:41;;;;;;;14.50;12.00;;;;;;;1.90;100.00;101256.99;106235;1257;72940;-77
2023/12/11 09:55:09;;;;;;;14.60;11.20;;;;;;;1.89;100.00;101253.39;105703;1256;64058;-79
2023/12/11 09:57:37;;;;;;;11.40;10.00;;;;;;;1.92;100.00;101250.41;105754;1258;72497;-78
2023/12/11 10:00:06;;;;;;;13.00;9.80;;;;;;;1.94;100.00;101251.27;105931;1254;59763;-79
2023/12/11 10:02:34;;;;;;;13.40;9.60;;;;;;;1.92;100.00;101247.48;105854;1255;59681;-77
2023/12/11 10:05:03;;;;;;;13.80;9.70;;;;;;;1.86;100.00;101241.70;105752;1254;71538;-77
2023/12/11 10:07:31;;;;;;;11.80;9.40;;;;;;;1.85;100.00;101243.09;105873;1257;63569;-77
2023/12/11 10:10:16;;;;;;;12.80;9.00;;;;;;;1.86;100.00;101240.14;105885;1254;71848;-77
2023/12/11 10:12:45;;;;;;;12.30;8.90;;;;;;;1.89;100.00;101244.25;105765;1253;60469;-76
2023/12/11 10:15:33;;;;;;;12.70;10.00;;;;;;;1.87;100.00;101245.14;105798;1254;60409;-78
2023/12/11 10:18:09;;;;;;;16.10;9.10;;;;;;;1.88;100.00;101245.98;105814;1254;73115;-79
2023/12/11 10:20:38;;;;;;;8.50;6.70;;;;;;;1.88;100.00;101249.78;105771;1256;64128;-75
2023/12/11 10:23:18;;;;;;;9.70;7.60;;;;;;;1.81;100.00;101250.05;105788;1255;72795;-77
2023/12/11 10:25:51;;;;;;;11.90;8.50;;;;;;;1.74;100.00;101245.48;105866;1257;61449;-75
2023/12/11 10:28:25;;;;;;;11.40;8.80;;;;;;;1.76;100.00;101245.28;105727;1257;60459;-77
2023/12/11 10:30:59;;;;;;;13.70;11.20;;;;;;;1.79;100.00;101242.65;105996;1260;73918;-76
2023/12/11 10:33:27;;;;;;;13.40;10.90;;;;;;;1.76;100.00;101237.88;105888;1254;62241;-76
2023/12/11 10:36:12;;;;;;;18.80;12.30;;;;;;;1.73;100.00;101238.08;105778;1254;72710;-77
2023/12/11 10:38:39;;;;;;;13.00;10.20;;;;;;;1.73;100.00;101230.51;105937;1257;60931;-75
2023/12/11 10:41:07;;;;;;;13.60;9.40;;;;;;;1.77;100.00;101232.01;106057;1254;60571;-72
2023/12/11 10:43:43;;;;;;;12.80;8.40;;;;;;;1.80;100.00;101228.86;105765;1257;72436;-77
2023/12/11 10:46:14;;;;;;;7.80;5.90;;;;;;;1.77;100.00;101226.83;105881;1254;63074;-76
2023/12/11 10:48:41;;;;;;;7.90;6.20;;;;;;;1.72;100.00;101219.14;105792;1254;73821;-78
2023/12/11 10:51:09;;;;;;;11.20;8.40;;;;;;;1.67;100.00;101217.83;105780;1254;61193;-77
2023/12/11 10:53:36;;;;;;;9.90;7.80;;;;;;;1.65;100.00;101214.57;105855;1257;60348;-77
2023/12/11 10:56:06;;;;;;;8.90;6.70;;;;;;;1.69;100.00;101213.50;105794;1256;73821;-76
2023/12/11 10:58:34;;;;;;;10.90;8.30;;;;;;;1.72;100.00;101216.73;105877;1254;65357;-77
2023/12/11 11:01:01;;;;;;;12.30;8.90;;;;;;;1.75;100.00;101216.86;105863;1257;72633;-78
2023/12/11 11:03:29;;;;;;;12.80;10.10;;;;;;;1.73;100.00;101208.09;106134;1257;62280;-77
2023/12/11 11:05:56;;;;;;;15.50;10.30;;;;;;;1.74;100.00;101208.77;106580;1254;60478;-77
2023/12/11 11:08:51;;;;;;;12.50;9.50;;;;;;;1.80;100.00;101201.95;106378;1254;72980;-78
2023/12/11 11:11:24;;;;;;;17.20;10.30;;;;;;;1.89;100.00;101194.94;105967;1254;65021;-79